Time;durP1;ratioP1;P1;durP2;ratioP2;P2;SDS_P1;SDS_P2;PMS_P1;PMS_P2;Temp;Humidity;BMP_temperature;BMP_pressure;BME280_temperature;BME280_humidity;BME280_pressure;Samples;Min_cycle;Max_cycle;Signal;HPM_P1;HPM_P2
2022/02/20 00:02:04;;;;;;;5.27;1.13;;;5.20;99.90;;;5.84;100.00;-19925.81;5114118;28;20264;-56
2022/02/20 00:04:34;;;;;;;3.90;1.47;;;5.20;99.90;;;5.84;100.00;-19925.63;5114513;28;20264;-59
2022/02/20 00:07:02;;;;;;;2.93;1.70;;;5.20;99.90;;;5.97;100.00;-19930.25;5114042;28;20712;-59
2022/02/20 00:09:30;;;;;;;3.07;1.20;;;5.20;99.90;;;6.00;100.00;-19931.13;5114560;28;20277;-58
2022/02/20 00:11:58;;;;;;;4.33;1.40;;;5.30;99.90;;;5.87;100.00;-19926.84;5115783;28;20215;-59
2022/02/20 00:14:26;;;;;;;6.13;1.23;;;5.20;99.90;;;5.93;100.00;-19928.88;5114416;28;20225;-60
2022/02/20 00:16:54;;;;;;;3.13;1.17;;;5.30;99.90;;;6.14;100.00;-19936.06;5113528;28;20235;-58
2022/02/20 00:19:22;;;;;;;4.87;1.40;;;5.30;99.90;;;6.14;100.00;-19935.88;5114288;28;20583;-58
2022/02/20 00:21:52;;;;;;;2.27;1.40;;;5.30;99.90;;;6.22;100.00;-19938.63;5113858;28;20763;-60
2022/02/20 00:24:20;;;;;;;4.40;1.40;;;5.30;99.90;;;6.19;100.00;-19937.59;5126425;27;20591;-57
2022/02/20 00:26:48;;;;;;;5.27;1.40;;;5.30;99.90;;;5.94;100.00;-19929.06;5114380;28;20281;-59
2022/02/20 00:29:15;;;;;;;3.20;1.33;;;5.30;99.90;;;5.81;100.00;-19924.59;5113473;28;20309;-57
2022/02/20 00:31:43;;;;;;;3.87;1.43;;;5.20;99.90;;;5.68;100.00;-19920.16;5113387;28;20309;-58
2022/02/20 00:34:11;;;;;;;4.13;1.30;;;5.10;99.90;;;5.48;100.00;-19913.34;5113795;28;20264;-58
2022/02/20 00:36:39;;;;;;;3.43;1.37;;;4.90;99.90;;;5.44;100.00;-19911.97;5112760;28;20278;-57
2022/02/20 00:39:09;;;;;;;2.90;1.53;;;4.90;99.90;;;5.46;100.00;-19912.66;5113760;28;20294;-59
2022/02/20 00:41:37;;;;;;;4.13;1.37;;;4.80;99.90;;;5.43;100.00;-19911.78;5112818;28;20229;-58
2022/02/20 00:44:06;;;;;;;2.83;1.27;;;4.80;99.90;;;5.54;100.00;-19915.56;5113198;28;20251;-57
2022/02/20 00:46:34;;;;;;;1.40;1.10;;;4.80;99.90;;;5.58;100.00;-19916.75;5113052;28;20788;-58
2022/02/20 00:49:02;;;;;;;5.07;1.43;;;4.80;99.90;;;5.62;100.00;-19918.28;5113386;28;20318;-59
2022/02/20 00:51:30;;;;;;;2.97;1.60;;;4.90;99.90;;;5.46;100.00;-19912.81;5113109;28;20205;-59
2022/02/20 00:53:58;;;;;;;4.27;1.30;;;4.80;99.90;;;5.51;100.00;-19914.34;5113684;28;20258;-57
2022/02/20 00:56:27;;;;;;;2.57;1.37;;;4.80;99.90;;;5.51;100.00;-19914.34;5112424;28;20317;-57
2022/02/20 00:58:55;;;;;;;3.23;1.30;;;4.90;99.90;;;5.61;100.00;-19917.78;5112858;28;20312;-58
2022/02/20 01:01:23;;;;;;;2.50;1.20;;;4.90;99.90;;;5.57;100.00;-19916.41;5113207;28;20306;-60
2022/02/20 01:03:51;;;;;;;2.33;1.60;;;4.90;99.90;;;5.55;100.00;-19915.72;5113021;28;20299;-57
2022/02/20 01:06:19;;;;;;;2.10;1.40;;;4.90;99.90;;;5.59;100.00;-19917.25;5113491;28;20207;-58
2022/02/20 01:08:47;;;;;;;3.87;1.40;;;4.90;99.90;;;5.59;100.00;-19917.09;5113485;28;20286;-58
2022/02/20 01:11:15;;;;;;;4.50;1.30;;;4.90;99.90;;;5.66;100.00;-19919.47;5112877;28;20221;-57
2022/02/20 01:13:45;;;;;;;3.03;1.33;;;4.90;99.90;;;5.74;100.00;-19922.22;5112766;28;20258;-58
2022/02/20 01:16:14;;;;;;;3.00;1.30;;;5.00;99.90;;;5.53;100.00;-19915.22;5112733;28;20745;-57
2022/02/20 01:18:43;;;;;;;2.73;1.47;;;4.90;99.90;;;5.38;100.00;-19910.06;5112713;28;20224;-59
2022/02/20 01:21:11;;;;;;;2.07;1.40;;;4.90;99.90;;;5.59;100.00;-19917.09;5113096;28;20293;-57
2022/02/20 01:23:39;;;;;;;1.37;1.10;;;4.80;99.90;;;5.60;100.00;-19917.59;5112367;28;20584;-58
2022/02/20 01:26:08;;;;;;;2.40;1.40;;;4.90;99.90;;;5.56;100.00;-19916.25;5112198;28;20254;-58
2022/02/20 01:28:36;;;;;;;2.20;1.27;;;4.90;99.90;;;5.63;100.00;-19918.63;5112133;28;20255;-57
2022/02/20 01:31:05;;;;;;;2.97;1.33;;;4.80;99.90;;;5.50;100.00;-19914.00;5112451;28;20313;-58
2022/02/20 01:33:33;;;;;;;2.90;1.33;;;4.80;99.90;;;5.49;100.00;-19913.66;5100736;28;20797;-58
2022/02/20 01:36:01;;;;;;;2.80;1.10;;;4.80;99.90;;;5.47;100.00;-19913.16;5113192;28;20285;-58
2022/02/20 01:38:29;;;;;;;2.43;1.30;;;4.80;99.90;;;5.37;100.00;-19909.56;5111907;28;20312;-60
2022/02/20 01:40:57;;;;;;;1.93;1.00;;;4.80;99.90;;;5.40;100.00;-19910.59;5111937;28;20664;-59
2022/02/20 01:43:25;;;;;;;1.53;1.10;;;4.80;99.90;;;5.55;100.00;-19915.72;5112091;28;20221;-59
2022/02/20 01:45:54;;;;;;;1.23;0.87;;;4.80;99.90;;;5.44;100.00;-19912.13;5112408;28;20217;-58
2022/02/20 01:48:24;;;;;;;5.53;1.40;;;4.80;99.90;;;5.50;100.00;-19914.00;5112151;28;20527;-58
2022/02/20 01:50:53;;;;;;;2.03;1.30;;;4.80;99.90;;;5.48;100.00;-19913.50;5112988;28;20233;-59
2022/02/20 01:53:21;;;;;;;1.67;1.00;;;4.80;99.90;;;5.62;100.00;-19918.28;5111467;28;20817;-59
2022/02/20 01:55:50;;;;;;;1.40;0.90;;;4.90;99.90;;;5.79;100.00;-19924.09;5111529;28;20247;-59
2022/02/20 01:58:19;;;;;;;2.00;1.07;;;4.90;99.90;;;5.66;100.00;-19919.47;5111611;28;20233;-59
2022/02/20 02:00:47;;;;;;;2.13;1.10;;;5.00;99.90;;;6.04;100.00;-19932.47;5111789;28;20302;-59
2022/02/20 02:03:16;;;;;;;1.83;0.87;;;5.10;99.90;;;5.96;100.00;-19929.75;5111812;27;20227;-58
2022/02/20 02:05:45;;;;;;;1.10;0.80;;;5.20;99.90;;;6.24;100.00;-19939.16;5112590;28;20208;-56
2022/02/20 02:08:15;;;;;;;1.00;0.90;;;5.30;99.90;;;6.08;100.00;-19934.00;5111746;28;20312;-58
2022/02/20 02:10:43;;;;;;;1.70;0.90;;;5.30;99.90;;;6.28;100.00;-19940.50;5111398;28;20308;-58
2022/02/20 02:13:11;;;;;;;1.93;0.93;;;5.40;99.90;;;6.10;100.00;-19934.69;5111922;28;20335;-60
2022/02/20 02:15:49;;;;;;;1.00;0.90;;;5.50;99.90;;;6.00;100.00;-19931.13;5112644;28;20329;-57
2022/02/20 02:18:19;;;;;;;2.00;1.03;;;5.40;99.90;;;5.86;100.00;-19926.31;5113331;27;20298;-60
2022/02/20 02:20:49;;;;;;;2.53;1.03;;;5.30;99.90;;;5.69;100.00;-19920.50;5112570;28;20198;-60
2022/02/20 02:23:19;;;;;;;1.33;1.10;;;5.20;99.90;;;5.62;100.00;-19918.28;5111645;28;20243;-58
2022/02/20 02:25:50;;;;;;;1.67;1.07;;;5.00;99.90;;;5.63;100.00;-19918.63;5111403;28;20276;-58
2022/02/20 02:28:19;;;;;;;1.80;1.03;;;4.90;99.90;;;5.57;100.00;-19916.56;5111157;28;20303;-59
2022/02/20 02:30:48;;;;;;;1.50;1.20;;;4.90;99.90;;;5.60;100.00;-19917.44;5111188;28;20711;-59
2022/02/20 02:33:27;;;;;;;1.87;1.13;;;4.90;99.90;;;5.54;100.00;-19915.38;5111630;28;20249;-59
2022/02/20 02:35:56;;;;;;;1.30;1.00;;;4.80;99.90;;;5.69;100.00;-19920.50;5112109;28;20241;-59
2022/02/20 02:38:27;;;;;;;0.90;0.90;;;4.80;99.90;;;5.60;100.00;-19917.59;5110892;28;20799;-60
2022/02/20 02:40:56;;;;;;;1.80;1.10;;;4.90;99.90;;;5.73;100.00;-19921.88;5111150;28;20231;-58
2022/02/20 02:43:25;;;;;;;2.30;0.97;;;4.90;99.90;;;5.81;100.00;-19924.78;5111266;28;20254;-59
2022/02/20 02:45:53;;;;;;;1.83;0.90;;;5.00;99.90;;;5.91;100.00;-19928.03;5111137;28;20328;-60
2022/02/20 02:48:21;;;;;;;1.57;1.00;;;5.00;99.90;;;5.99;100.00;-19930.94;5111364;28;20237;-59
2022/02/20 02:50:49;;;;;;;1.70;0.80;;;5.10;99.90;;;5.97;100.00;-19930.09;5111347;28;20297;-58
2022/02/20 02:53:18;;;;;;;2.13;0.77;;;5.20;99.90;;;6.06;100.00;-19933.16;5111276;28;20225;-58
2022/02/20 02:55:50;;;;;;;1.47;0.80;;;5.30;99.90;;;6.18;100.00;-19937.44;5110694;28;20275;-59
2022/02/20 02:58:19;;;;;;;0.90;0.70;;;5.30;99.90;;;6.27;100.00;-19940.34;5111105;28;20317;-57
2022/02/20 03:00:47;;;;;;;1.37;0.70;;;5.40;99.90;;;6.34;100.00;-19942.56;5110989;28;20347;-57
2022/02/20 03:03:16;;;;;;;1.37;0.80;;;5.50;99.90;;;6.39;100.00;-19944.44;5111213;28;20309;-55
2022/02/20 03:05:45;;;;;;;1.70;0.90;;;5.60;99.90;;;6.48;100.00;-19947.34;5111150;28;20670;-58
2022/02/20 03:08:13;;;;;;;0.87;0.60;;;5.60;99.90;;;6.59;100.00;-19951.09;5110959;28;20305;-57
2022/02/20 03:10:41;;;;;;;1.53;1.10;;;5.70;99.90;;;6.56;100.00;-19950.09;5110519;28;20254;-57
2022/02/20 03:13:10;;;;;;;1.63;0.70;;;5.60;99.90;;;6.63;100.00;-19952.47;5111082;28;20226;-58
2022/02/20 03:15:38;;;;;;;1.87;0.90;;;5.70;99.90;;;6.61;100.00;-19951.97;5111042;28;20230;-58
2022/02/20 03:18:07;;;;;;;1.43;1.10;;;5.80;99.90;;;6.62;100.00;-19952.31;5111348;28;20321;-59
2022/02/20 03:20:35;;;;;;;2.03;1.00;;;5.80;99.90;;;6.52;100.00;-19948.72;5110055;28;20961;-57
2022/02/20 03:23:03;;;;;;;1.97;1.20;;;5.70;99.90;;;6.66;100.00;-19953.66;5110571;28;20705;-55
2022/02/20 03:25:33;;;;;;;2.40;1.20;;;5.80;99.90;;;6.62;100.00;-19952.31;5109966;27;20233;-59
2022/02/20 03:28:01;;;;;;;3.63;1.60;;;5.80;99.90;;;6.67;100.00;-19954.00;5111039;27;20219;-57
2022/02/20 03:30:31;;;;;;;1.10;1.00;;;5.80;99.90;;;6.68;100.00;-19954.19;5110920;27;20212;-60
2022/02/20 03:32:59;;;;;;;2.47;1.00;;;5.80;99.90;;;6.66;100.00;-19953.66;5111453;28;20289;-59
2022/02/20 03:35:27;;;;;;;2.17;1.10;;;5.80;99.90;;;6.54;100.00;-19949.56;5110464;28;20316;-58
2022/02/20 03:37:55;;;;;;;2.43;1.57;;;5.80;99.90;;;6.65;100.00;-19953.16;5110690;28;20313;-57
2022/02/20 03:40:23;;;;;;;3.10;1.10;;;5.70;99.90;;;6.64;100.00;-19952.81;5110293;28;20232;-57
2022/02/20 03:42:51;;;;;;;2.07;1.27;;;5.70;99.90;;;6.66;100.00;-19953.66;5110480;28;20279;-59
2022/02/20 03:45:20;;;;;;;1.33;1.13;;;5.80;99.90;;;6.69;100.00;-19954.69;5110881;28;20259;-59
2022/02/20 03:47:51;;;;;;;4.23;1.90;;;5.70;99.90;;;6.58;100.00;-19950.94;5111070;28;20198;-58
2022/02/20 03:50:19;;;;;;;2.53;1.43;;;5.70;99.90;;;6.69;100.00;-19954.53;5110084;28;20764;-59
2022/02/20 03:52:48;;;;;;;1.83;1.40;;;5.80;99.90;;;6.62;100.00;-19952.31;5110474;28;20303;-58
2022/02/20 03:55:18;;;;;;;3.20;1.30;;;5.70;99.90;;;6.48;100.00;-19947.50;5109730;28;20248;-56
2022/02/20 03:57:46;;;;;;;1.67;1.10;;;5.70;99.90;;;6.61;100.00;-19951.97;5110539;28;20232;-58
2022/02/20 04:00:18;;;;;;;2.27;1.17;;;5.70;99.90;;;6.72;100.00;-19955.53;5110485;28;20285;-58
2022/02/20 04:02:46;;;;;;;1.53;1.10;;;5.70;99.90;;;6.62;100.00;-19952.13;5110637;28;20234;-58
2022/02/20 04:05:18;;;;;;;3.37;1.20;;;5.70;99.90;;;6.54;100.00;-19949.56;5110205;28;20358;-60
2022/02/20 04:07:47;;;;;;;3.27;1.27;;;5.70;99.90;;;6.44;100.00;-19946.16;5110008;28;20240;-59
2022/02/20 04:10:15;;;;;;;3.40;1.23;;;5.70;99.90;;;6.41;100.00;-19945.13;5109773;28;20253;-58
2022/02/20 04:12:45;;;;;;;1.83;1.30;;;5.60;99.90;;;6.33;100.00;-19942.38;5110752;28;20290;-57
2022/02/20 04:15:13;;;;;;;1.87;1.43;;;5.60;99.90;;;6.49;100.00;-19947.84;5110443;28;20322;-60
2022/02/20 04:17:42;;;;;;;1.57;1.10;;;5.60;99.90;;;6.59;100.00;-19951.28;5110949;28;20203;-59
2022/02/20 04:20:15;;;;;;;2.57;1.30;;;5.60;99.90;;;6.61;100.00;-19951.78;5109203;28;20680;-58
2022/02/20 04:22:47;;;;;;;3.40;1.60;;;5.70;99.90;;;6.64;100.00;-19952.97;5110390;28;20309;-56
2022/02/20 04:25:16;;;;;;;2.70;1.20;;;5.70;99.90;;;6.56;100.00;-19950.25;5110100;28;20230;-58
2022/02/20 04:27:44;;;;;;;1.67;1.07;;;5.70;99.90;;;6.70;100.00;-19954.84;5110734;28;20276;-59
2022/02/20 04:30:16;;;;;;;2.40;1.30;;;5.80;99.90;;;6.74;100.00;-19956.41;5110367;28;20219;-58
2022/02/20 04:32:44;;;;;;;2.80;2.03;;;5.80;99.90;;;6.69;100.00;-19954.69;5112474;28;20657;-56
2022/02/20 04:35:13;;;;;;;4.27;1.80;;;5.80;99.90;;;6.76;100.00;-19957.09;5113986;28;20665;-59
2022/02/20 04:37:41;;;;;;;3.20;1.70;;;5.80;99.90;;;6.84;100.00;-19959.81;5114150;28;20246;-56
2022/02/20 04:40:12;;;;;;;2.70;1.80;;;5.90;99.90;;;6.87;100.00;-19960.84;5113644;28;20346;-57
2022/02/20 04:42:40;;;;;;;3.60;1.80;;;5.90;99.90;;;6.85;100.00;-19960.16;5113857;28;20242;-57
2022/02/20 04:45:09;;;;;;;3.13;1.60;;;5.90;99.90;;;6.83;100.00;-19959.31;5114344;28;20288;-57
2022/02/20 04:47:37;;;;;;;3.30;1.90;;;5.90;99.90;;;6.85;100.00;-19960.00;5113360;28;20236;-57
2022/02/20 04:50:07;;;;;;;2.53;1.43;;;6.00;99.90;;;6.94;100.00;-19963.06;5113209;28;20227;-56
2022/02/20 04:52:34;;;;;;;3.17;2.00;;;6.00;99.90;;;6.95;100.00;-19963.41;5113462;28;20241;-58
2022/02/20 04:55:03;;;;;;;5.40;2.70;;;6.00;99.90;;;6.95;100.00;-19963.56;5113236;28;20230;-58
2022/02/20 04:57:34;;;;;;;2.50;1.80;;;6.00;99.90;;;6.93;100.00;-19962.72;5113248;28;20250;-57
2022/02/20 05:00:05;;;;;;;4.90;2.00;;;6.10;99.90;;;6.98;100.00;-19964.59;5113529;28;20313;-60
2022/02/20 05:02:33;;;;;;;2.47;1.83;;;6.10;99.90;;;7.03;100.00;-19966.31;5112813;28;20458;-58
2022/02/20 05:05:01;;;;;;;4.77;2.47;;;6.20;99.90;;;6.99;100.00;-19964.78;5113628;28;20228;-56
2022/02/20 05:07:30;;;;;;;3.20;2.53;;;6.10;99.90;;;7.04;100.00;-19966.66;5113210;28;20660;-57
2022/02/20 05:09:58;;;;;;;3.17;2.00;;;6.10;99.90;;;6.97;100.00;-19964.09;5112905;28;20319;-57
2022/02/20 05:12:26;;;;;;;7.10;2.47;;;6.10;99.90;;;6.97;100.00;-19964.25;5113145;28;20199;-59
2022/02/20 05:14:56;;;;;;;3.30;2.00;;;6.10;99.90;;;7.03;100.00;-19966.31;5113586;28;20238;-59
2022/02/20 05:17:24;;;;;;;2.53;1.80;;;6.10;99.90;;;7.03;100.00;-19966.31;5111760;28;20249;-56
2022/02/20 05:19:52;;;;;;;3.50;1.70;;;6.10;99.90;;;7.06;100.00;-19967.16;5112783;28;20309;-57
2022/02/20 05:22:21;;;;;;;3.97;2.07;;;6.10;99.90;;;7.04;100.00;-19966.47;5113071;28;20309;-57
2022/02/20 05:24:50;;;;;;;3.83;1.93;;;6.10;99.90;;;7.04;100.00;-19966.47;5112613;28;20836;-59
2022/02/20 05:27:18;;;;;;;3.40;1.70;;;6.10;99.90;;;7.11;100.00;-19969.03;5112778;27;20313;-56
2022/02/20 05:29:46;;;;;;;2.53;1.50;;;6.20;99.90;;;7.08;100.00;-19968.03;5113469;28;20282;-58
2022/02/20 05:32:23;;;;;;;3.27;1.60;;;6.20;99.90;;;7.08;100.00;-19967.84;5112437;28;20269;-59
2022/02/20 05:34:52;;;;;;;3.47;1.80;;;6.20;99.90;;;7.04;100.00;-19966.66;5112793;28;20226;-58
2022/02/20 05:37:20;;;;;;;2.87;1.30;;;6.20;99.90;;;7.08;100.00;-19967.84;5112387;28;20766;-58
2022/02/20 05:39:48;;;;;;;4.13;1.90;;;6.20;99.90;;;7.11;100.00;-19968.88;5112199;28;20227;-58
2022/02/20 05:42:16;;;;;;;3.37;1.37;;;6.20;99.90;;;7.10;100.00;-19968.69;5112691;28;20293;-60
2022/02/20 05:44:44;;;;;;;2.13;1.80;;;6.20;99.90;;;7.09;100.00;-19968.38;5112470;28;20259;-59
2022/02/20 05:47:14;;;;;;;1.97;1.70;;;6.20;99.90;;;6.91;100.00;-19962.22;5112121;28;20226;-58
2022/02/20 05:49:43;;;;;;;2.30;1.40;;;6.20;99.90;;;6.99;100.00;-19964.78;5112699;28;20243;-58
2022/02/20 05:52:11;;;;;;;2.40;1.73;;;6.10;99.90;;;7.01;100.00;-19965.47;5112238;28;20302;-58
2022/02/20 05:54:39;;;;;;;3.40;1.80;;;6.10;99.90;;;7.06;100.00;-19967.16;5112070;28;20269;-59
2022/02/20 05:57:07;;;;;;;2.27;1.70;;;6.10;99.90;;;6.94;100.00;-19963.06;5112609;28;20209;-57
2022/02/20 05:59:36;;;;;;;1.90;1.60;;;6.10;99.90;;;7.12;100.00;-19969.22;5112137;28;20313;-58
2022/02/20 06:02:04;;;;;;;3.40;1.63;;;6.10;99.90;;;7.07;100.00;-19967.69;5111972;28;20236;-57
2022/02/20 06:04:32;;;;;;;3.97;2.30;;;6.10;99.90;;;7.18;100.00;-19971.44;5112095;28;20230;-57
2022/02/20 06:07:03;;;;;;;1.97;1.60;;;6.20;99.90;;;7.02;100.00;-19965.97;5111875;28;20317;-59
2022/02/20 06:09:31;;;;;;;2.80;1.70;;;6.20;99.90;;;7.06;100.00;-19967.34;5111494;28;20302;-58
2022/02/20 06:11:59;;;;;;;2.87;1.90;;;6.20;99.90;;;7.12;100.00;-19969.38;5112651;28;20282;-59
2022/02/20 06:14:27;;;;;;;3.27;1.77;;;6.20;99.90;;;7.18;100.00;-19971.44;5110639;28;20688;-58
2022/02/20 06:16:55;;;;;;;4.87;1.73;;;6.20;99.90;;;7.25;100.00;-19973.84;5111485;28;20816;-58
2022/02/20 06:19:23;;;;;;;3.23;1.90;;;6.20;99.90;;;7.28;100.00;-19974.84;5111787;28;20656;-58
2022/02/20 06:21:51;;;;;;;3.20;1.97;;;6.30;99.90;;;7.27;100.00;-19974.50;5111662;28;20305;-59
2022/02/20 06:24:21;;;;;;;3.47;1.90;;;6.40;99.90;;;7.18;100.00;-19971.44;5111190;28;20195;-59
2022/02/20 06:26:48;;;;;;;4.27;1.90;;;6.30;99.90;;;7.19;100.00;-19971.78;5112327;28;20721;-58
2022/02/20 06:29:17;;;;;;;4.47;2.10;;;6.40;99.90;;;7.22;100.00;-19972.81;5111303;28;20309;-59
2022/02/20 06:31:45;;;;;;;3.47;1.80;;;6.30;99.90;;;7.21;100.00;-19972.28;5111714;28;20318;-55
2022/02/20 06:34:13;;;;;;;2.60;1.77;;;6.30;99.90;;;7.20;100.00;-19972.13;5112466;28;20237;-57
2022/02/20 06:36:41;;;;;;;2.67;1.77;;;6.30;99.90;;;7.32;100.00;-19976.22;5111468;28;20234;-58
2022/02/20 06:39:10;;;;;;;2.17;1.83;;;6.30;99.90;;;7.37;100.00;-19977.94;5111790;28;20223;-59
2022/02/20 06:41:39;;;;;;;3.00;2.03;;;6.40;99.90;;;7.54;100.00;-19983.41;5111273;28;20380;-58
2022/02/20 06:44:07;;;;;;;2.30;1.90;;;6.40;99.90;;;7.42;100.00;-19979.63;5110866;28;20301;-58
2022/02/20 06:46:36;;;;;;;3.87;1.93;;;6.40;99.90;;;7.40;100.00;-19978.97;5111225;28;20230;-60
2022/02/20 06:49:07;;;;;;;3.63;2.20;;;6.50;99.90;;;7.35;100.00;-19977.25;5111322;28;20240;-59
2022/02/20 06:51:36;;;;;;;3.90;2.30;;;6.50;99.90;;;7.43;100.00;-19979.81;5111158;28;20222;-59
2022/02/20 06:54:05;;;;;;;3.43;2.20;;;6.40;99.90;;;7.49;100.00;-19981.88;5111477;28;20282;-59
2022/02/20 06:56:33;;;;;;;3.90;1.93;;;6.50;99.90;;;7.53;100.00;-19983.06;5110470;28;20229;-58
2022/02/20 06:59:02;;;;;;;3.03;1.60;;;6.50;99.90;;;7.71;100.00;-19989.22;5110948;28;20310;-59
2022/02/20 07:01:30;;;;;;;2.80;2.30;;;6.60;99.90;;;7.78;100.00;-19991.59;5110850;28;20663;-59
2022/02/20 07:03:58;;;;;;;3.83;2.37;;;6.70;99.90;;;7.68;100.00;-19988.34;5110733;28;20661;-59
2022/02/20 07:06:26;;;;;;;3.47;2.30;;;6.70;99.90;;;7.73;100.00;-19989.91;5110818;28;20694;-58
2022/02/20 07:08:54;;;;;;;3.53;2.27;;;6.70;99.90;;;7.83;100.00;-19993.47;5110328;28;20204;-58
2022/02/20 07:11:22;;;;;;;3.60;2.83;;;6.80;99.90;;;7.79;100.00;-19991.94;5110521;28;20242;-58
2022/02/20 07:13:50;;;;;;;5.93;2.90;;;6.80;99.90;;;7.83;100.00;-19993.31;5110470;28;20726;-59
2022/02/20 07:16:20;;;;;;;3.10;2.80;;;6.80;99.90;;;7.69;100.00;-19988.69;5110904;28;20250;-58
2022/02/20 07:18:48;;;;;;;3.17;2.50;;;6.70;99.90;;;7.79;100.00;-19991.94;5110736;28;20234;-58
2022/02/20 07:21:16;;;;;;;3.97;2.60;;;6.80;99.90;;;7.83;100.00;-19993.47;5110766;28;20340;-58
2022/02/20 07:23:44;;;;;;;3.67;2.60;;;6.70;99.90;;;7.86;100.00;-19994.34;5110943;28;20448;-59
2022/02/20 07:26:12;;;;;;;5.13;3.00;;;6.80;99.90;;;7.79;98.11;-19991.94;5110540;28;20312;-56
2022/02/20 07:28:40;;;;;;;3.17;2.40;;;6.80;99.90;;;7.77;98.44;-19991.25;5110520;28;20249;-56
2022/02/20 07:31:08;;;;;;;3.83;2.53;;;6.80;99.90;;;7.72;98.65;-19989.56;5110837;28;20234;-58
2022/02/20 07:33:37;;;;;;;5.43;2.67;;;6.80;99.90;;;7.73;99.14;-19989.91;5110319;28;20310;-57
2022/02/20 07:36:09;;;;;;;4.27;3.00;;;6.80;99.90;;;7.59;100.00;-19985.09;5111335;28;20183;-59
2022/02/20 07:38:37;;;;;;;3.10;2.43;;;6.60;99.90;;;7.43;100.00;-19979.97;5110551;28;20754;-57
2022/02/20 07:41:05;;;;;;;5.77;3.03;;;6.60;99.90;;;7.53;100.00;-19983.06;5110118;28;20322;-56
2022/02/20 07:43:33;;;;;;;4.73;2.83;;;6.60;99.90;;;7.52;100.00;-19982.88;5110447;28;20221;-58
2022/02/20 07:46:01;;;;;;;3.93;2.73;;;6.60;99.90;;;7.41;100.00;-19979.31;5110667;28;20307;-57
2022/02/20 07:48:29;;;;;;;3.20;2.90;;;6.50;99.90;;;7.62;100.00;-19986.13;5110533;28;20580;-58
2022/02/20 07:50:58;;;;;;;5.20;3.00;;;6.60;99.90;;;7.58;100.00;-19984.94;5110918;28;20205;-58
2022/02/20 07:53:27;;;;;;;7.00;3.23;;;6.70;99.90;;;7.85;99.05;-19994.00;5110213;28;20306;-58
2022/02/20 07:55:55;;;;;;;4.27;2.60;;;6.70;99.90;;;7.93;97.65;-19996.91;5110138;28;20314;-58
2022/02/20 07:58:23;;;;;;;3.97;2.90;;;6.90;99.90;;;7.84;99.17;-19993.66;5110452;28;20234;-59
2022/02/20 08:00:53;;;;;;;2.70;2.50;;;6.80;99.90;;;8.02;98.21;-19999.81;5110460;28;20609;-58
2022/02/20 08:03:21;;;;;;;4.30;2.60;;;6.90;99.90;;;7.85;97.96;-19994.00;5110246;28;20203;-57
2022/02/20 08:05:49;;;;;;;5.30;2.60;;;6.90;99.90;;;7.67;97.25;-19988.00;5110296;28;20290;-57
2022/02/20 08:08:19;;;;;;;4.77;2.67;;;6.90;99.90;;;7.67;99.51;-19987.84;5114383;28;20314;-57
2022/02/20 08:10:47;;;;;;;3.37;2.37;;;6.80;99.90;;;7.94;98.23;-19997.06;5113608;27;20223;-58
2022/02/20 08:13:16;;;;;;;3.10;2.23;;;6.80;99.90;;;8.00;95.71;-19999.13;5114257;28;20223;-58
2022/02/20 08:15:44;;;;;;;3.10;2.90;;;6.90;99.90;;;8.05;95.67;-20000.84;5114155;28;20292;-58
2022/02/20 08:18:12;;;;;;;3.23;2.53;;;7.00;99.90;;;8.09;93.54;-20002.19;5114776;28;20294;-59
2022/02/20 08:20:40;;;;;;;2.40;2.20;;;7.00;99.90;;;8.20;92.55;-20005.97;5114017;28;20306;-58
2022/02/20 08:23:09;;;;;;;4.30;2.13;;;7.10;99.90;;;8.32;90.30;-20010.22;5114082;28;20247;-58
2022/02/20 08:25:39;;;;;;;3.83;1.93;;;7.20;99.90;;;8.28;91.24;-20008.69;5113502;28;20254;-59
2022/02/20 08:28:07;;;;;;;2.77;2.53;;;7.20;99.90;;;8.17;92.32;-20004.94;5114259;28;20618;-59
2022/02/20 08:30:36;;;;;;;3.70;2.40;;;7.20;99.90;;;8.28;91.05;-20008.88;5113702;28;20518;-58
2022/02/20 08:33:05;;;;;;;2.87;1.90;;;7.30;99.90;;;8.56;89.86;-20018.44;5114380;28;20282;-59
2022/02/20 08:35:34;;;;;;;2.97;2.00;;;7.30;99.90;;;8.58;88.01;-20019.13;5113500;28;20317;-58
2022/02/20 08:38:04;;;;;;;2.97;1.83;;;7.40;99.90;;;8.61;88.22;-20020.13;5113607;28;20675;-57
2022/02/20 08:40:33;;;;;;;6.43;2.10;;;7.50;99.90;;;8.52;90.44;-20017.06;5113260;28;20227;-57
2022/02/20 08:43:03;;;;;;;2.43;1.80;;;7.40;99.90;;;8.57;90.71;-20018.78;5113734;27;20223;-57
2022/02/20 08:45:31;;;;;;;2.20;2.00;;;7.40;99.90;;;8.54;91.54;-20017.75;5113910;28;20206;-57
2022/02/20 08:47:59;;;;;;;3.10;2.40;;;7.50;99.90;;;8.74;90.36;-20024.25;5114279;28;20312;-58
2022/02/20 08:50:27;;;;;;;6.47;3.30;;;7.50;99.90;;;8.95;88.42;-20031.59;5113727;28;20313;-58
2022/02/20 08:52:54;;;;;;;4.53;2.47;;;7.70;99.90;;;9.10;87.66;-20036.72;5113704;27;20587;-58
2022/02/20 08:55:23;;;;;;;5.47;2.70;;;7.80;99.90;;;9.25;87.60;-20041.66;5113214;28;20270;-59
2022/02/20 08:57:51;;;;;;;2.67;2.40;;;8.00;99.90;;;9.36;87.78;-20045.59;5113381;28;20242;-58
2022/02/20 09:00:21;;;;;;;3.10;2.00;;;8.00;99.90;;;9.42;86.53;-20047.66;5113576;28;20295;-58
2022/02/20 09:02:49;;;;;;;3.83;2.30;;;8.10;99.90;;;9.14;87.11;-20038.06;5113492;28;20215;-58
2022/02/20 09:05:17;;;;;;;3.37;2.33;;;8.10;99.90;;;9.21;85.96;-20040.47;5114139;28;20308;-58
2022/02/20 09:07:45;;;;;;;3.17;2.43;;;8.10;99.90;;;9.28;85.43;-20042.69;5112848;28;20620;-59
2022/02/20 09:10:14;;;;;;;4.20;2.60;;;8.10;99.90;;;9.38;85.81;-20046.09;5103837;28;20308;-59
2022/02/20 09:12:42;;;;;;;4.93;2.83;;;8.20;99.90;;;9.56;85.92;-20052.25;5097365;28;20589;-58
2022/02/20 09:15:11;;;;;;;3.10;2.80;;;8.20;99.90;;;9.80;84.29;-20060.47;5106447;28;20285;-58
2022/02/20 09:17:41;;;;;;;3.07;2.63;;;8.40;99.90;;;9.81;84.18;-20060.78;5108152;28;20218;-59
2022/02/20 09:20:11;;;;;;;2.83;2.63;;;8.40;99.90;;;9.89;84.05;-20063.53;5108250;27;20226;-59
2022/02/20 09:22:41;;;;;;;4.67;3.43;;;8.50;99.90;;;9.83;83.16;-20061.47;5112692;28;20334;-60
2022/02/20 09:25:11;;;;;;;3.83;3.33;;;8.50;99.90;;;9.65;85.57;-20055.50;5111947;27;20223;-58
2022/02/20 09:27:40;;;;;;;3.97;3.53;;;8.50;99.90;;;9.63;86.63;-20054.66;5106176;28;20208;-60
2022/02/20 09:30:10;;;;;;;4.40;3.30;;;8.40;99.90;;;9.59;85.66;-20053.44;5093554;28;20250;-59
2022/02/20 09:32:38;;;;;;;5.83;3.87;;;8.40;99.90;;;9.85;84.90;-20062.34;5091877;28;20207;-59
2022/02/20 09:35:09;;;;;;;4.27;3.00;;;8.40;99.90;;;9.92;86.34;-20064.38;5115707;27;20778;-58
2022/02/20 09:37:37;;;;;;;3.50;3.20;;;8.50;99.90;;;9.95;84.56;-20065.41;5110765;27;20947;-60
2022/02/20 09:40:07;;;;;;;4.07;3.53;;;8.50;99.90;;;9.91;86.11;-20064.22;5116638;27;20218;-57
2022/02/20 09:42:35;;;;;;;4.10;3.70;;;8.60;99.90;;;9.84;85.98;-20061.81;5113460;27;20227;-61
2022/02/20 09:45:04;;;;;;;6.03;3.70;;;8.50;99.90;;;9.72;88.47;-20057.88;5091939;28;20250;-58
2022/02/20 09:47:37;;;;;;;5.37;3.10;;;8.40;99.90;;;9.52;89.32;-20051.06;5116084;27;20253;-56
2022/02/20 09:50:08;;;;;;;5.67;3.27;;;8.40;99.90;;;9.44;90.88;-20048.31;5108934;27;20756;-58
2022/02/20 09:52:36;;;;;;;5.80;3.60;;;8.30;99.90;;;9.27;90.80;-20042.53;5102740;27;20215;-58
2022/02/20 09:55:06;;;;;;;7.63;3.57;;;8.20;99.90;;;9.16;92.19;-20038.59;5106757;28;20281;-60
2022/02/20 09:57:35;;;;;;;5.57;2.90;;;8.10;99.90;;;9.13;91.77;-20037.56;5111271;28;20655;-59
2022/02/20 10:00:04;;;;;;;4.10;3.03;;;8.10;99.90;;;9.10;91.51;-20036.72;5112568;28;20203;-58
2022/02/20 10:02:36;;;;;;;5.53;3.00;;;8.00;99.90;;;9.19;92.27;-20039.78;5111492;28;20306;-58
2022/02/20 10:05:15;;;;;;;6.80;2.80;;;8.00;99.90;;;8.93;93.05;-20030.91;5111899;28;20285;-60
2022/02/20 10:07:43;;;;;;;3.23;2.17;;;8.00;99.90;;;9.03;94.48;-20034.16;5111757;28;20215;-59
2022/02/20 10:10:15;;;;;;;4.67;2.57;;;7.90;99.90;;;8.95;95.80;-20031.59;5107860;28;20751;-59
2022/02/20 10:12:45;;;;;;;4.63;2.87;;;7.90;99.90;;;8.90;95.33;-20029.72;5111314;28;20219;-58
2022/02/20 10:15:29;;;;;;;5.40;2.60;;;7.80;99.90;;;8.95;94.76;-20031.59;5111633;28;20193;-57
2022/02/20 10:18:10;;;;;;;6.53;2.80;;;7.80;99.90;;;8.93;94.80;-20030.72;5112044;28;20253;-59
2022/02/20 10:20:40;;;;;;;3.67;2.57;;;7.90;99.90;;;8.91;94.07;-20030.06;5111886;28;20246;-59
2022/02/20 10:23:12;;;;;;;4.53;2.40;;;7.80;99.90;;;8.86;95.55;-20028.34;5094449;28;20591;-59
2022/02/20 10:25:44;;;;;;;6.67;2.30;;;7.80;99.90;;;8.91;94.43;-20030.06;5107569;28;20215;-58
2022/02/20 10:28:13;;;;;;;4.07;2.37;;;7.80;99.90;;;8.80;97.48;-20026.47;5111207;28;20723;-59